sensor_id;sensor_type;location;lat;lon;timestamp;pressure;altitude;pressure_sealevel;temperature;humidity
46614;BME280;32338;50.430;6.806;2022-08-05T00:01:13;96505.94;;;20.12;100.00
46614;BME280;32338;50.430;6.806;2022-08-05T00:03:40;96511.69;;;20.25;100.00
46614;BME280;32338;50.430;6.806;2022-08-05T00:06:07;96503.09;;;20.23;100.00
46614;BME280;32338;50.430;6.806;2022-08-05T00:08:35;96491.88;;;20.32;100.00
46614;BME280;32338;50.430;6.806;2022-08-05T00:11:04;96491.38;;;20.35;100.00
46614;BME280;32338;50.430;6.806;2022-08-05T00:13:33;96489.28;;;20.42;100.00
46614;BME280;32338;50.430;6.806;2022-08-05T00:16:00;96492.28;;;20.51;100.00
46614;BME280;32338;50.430;6.806;2022-08-05T00:18:27;96487.66;;;20.41;100.00
46614;BME280;32338;50.430;6.806;2022-08-05T00:20:54;96477.72;;;20.41;100.00
46614;BME280;32338;50.430;6.806;2022-08-05T00:23:21;96469.38;;;20.38;100.00
46614;BME280;32338;50.430;6.806;2022-08-05T00:25:48;96469.13;;;20.39;100.00
46614;BME280;32338;50.430;6.806;2022-08-05T00:28:16;96476.09;;;20.40;100.00
46614;BME280;32338;50.430;6.806;2022-08-05T00:30:45;96471.66;;;20.19;100.00
46614;BME280;32338;50.430;6.806;2022-08-05T00:33:11;96476.53;;;20.22;100.00
46614;BME280;32338;50.430;6.806;2022-08-05T00:35:38;96483.16;;;20.14;100.00
46614;BME280;32338;50.430;6.806;2022-08-05T00:38:05;96481.69;;;19.96;100.00
46614;BME280;32338;50.430;6.806;2022-08-05T00:40:31;96479.00;;;19.69;100.00
46614;BME280;32338;50.430;6.806;2022-08-05T00:43:01;96478.09;;;19.58;100.00
46614;BME280;32338;50.430;6.806;2022-08-05T00:45:28;96480.31;;;19.66;100.00
46614;BME280;32338;50.430;6.806;2022-08-05T00:47:56;96487.03;;;19.69;100.00
46614;BME280;32338;50.430;6.806;2022-08-05T00:50:22;96480.72;;;19.80;100.00
46614;BME280;32338;50.430;6.806;2022-08-05T00:52:49;96491.75;;;19.84;100.00
46614;BME280;32338;50.430;6.806;2022-08-05T00:55:16;96490.72;;;19.85;100.00
46614;BME280;32338;50.430;6.806;2022-08-05T00:57:43;96490.91;;;19.78;100.00
46614;BME280;32338;50.430;6.806;2022-08-05T01:00:10;96485.94;;;19.92;100.00
46614;BME280;32338;50.430;6.806;2022-08-05T01:02:37;96487.31;;;19.95;100.00
46614;BME280;32338;50.430;6.806;2022-08-05T01:05:06;96482.00;;;20.00;100.00
46614;BME280;32338;50.430;6.806;2022-08-05T01:07:33;96486.53;;;19.99;100.00
46614;BME280;32338;50.430;6.806;2022-08-05T01:10:00;96483.09;;;19.76;100.00
46614;BME280;32338;50.430;6.806;2022-08-05T01:12:28;96488.75;;;19.80;100.00
46614;BME280;32338;50.430;6.806;2022-08-05T01:14:57;96491.75;;;19.84;100.00
46614;BME280;32338;50.430;6.806;2022-08-05T01:17:27;96479.91;;;19.80;100.00
46614;BME280;32338;50.430;6.806;2022-08-05T01:20:03;96477.22;;;19.80;100.00
46614;BME280;32338;50.430;6.806;2022-08-05T01:22:44;96473.72;;;19.79;100.00
46614;BME280;32338;50.430;6.806;2022-08-05T01:25:36;96468.59;;;19.72;100.00
46614;BME280;32338;50.430;6.806;2022-08-05T01:28:16;96453.47;;;19.61;100.00
46614;BME280;32338;50.430;6.806;2022-08-05T01:30:46;96438.16;;;19.29;100.00
46614;BME280;32338;50.430;6.806;2022-08-05T01:33:19;96433.28;;;18.99;100.00
46614;BME280;32338;50.430;6.806;2022-08-05T01:35:48;96433.59;;;19.02;100.00
46614;BME280;32338;50.430;6.806;2022-08-05T01:38:16;96434.06;;;19.21;100.00
46614;BME280;32338;50.430;6.806;2022-08-05T01:40:45;96428.44;;;19.23;100.00
46614;BME280;32338;50.430;6.806;2022-08-05T01:43:14;96427.97;;;19.26;100.00
46614;BME280;32338;50.430;6.806;2022-08-05T01:45:42;96434.47;;;19.35;100.00
46614;BME280;32338;50.430;6.806;2022-08-05T01:48:09;96436.13;;;19.41;100.00
46614;BME280;32338;50.430;6.806;2022-08-05T01:50:38;96433.47;;;19.41;100.00
46614;BME280;32338;50.430;6.806;2022-08-05T01:53:08;96440.97;;;19.39;100.00
46614;BME280;32338;50.430;6.806;2022-08-05T01:55:36;96446.31;;;19.39;100.00
46614;BME280;32338;50.430;6.806;2022-08-05T01:58:06;96472.53;;;19.37;100.00
46614;BME280;32338;50.430;6.806;2022-08-05T02:00:38;96479.94;;;19.30;100.00
46614;BME280;32338;50.430;6.806;2022-08-05T02:03:11;96498.16;;;19.28;100.00
46614;BME280;32338;50.430;6.806;2022-08-05T02:05:42;96514.72;;;19.25;100.00
46614;BME280;32338;50.430;6.806;2022-08-05T02:08:10;96544.13;;;19.20;100.00
46614;BME280;32338;50.430;6.806;2022-08-05T02:10:41;96579.28;;;19.06;100.00
46614;BME280;32338;50.430;6.806;2022-08-05T02:13:14;96593.91;;;18.99;100.00
46614;BME280;32338;50.430;6.806;2022-08-05T02:15:44;96601.94;;;18.99;100.00
46614;BME280;32338;50.430;6.806;2022-08-05T02:18:15;96605.97;;;19.01;100.00
46614;BME280;32338;50.430;6.806;2022-08-05T02:20:48;96607.47;;;18.92;100.00
46614;BME280;32338;50.430;6.806;2022-08-05T02:23:21;96615.25;;;18.93;100.00
46614;BME280;32338;50.430;6.806;2022-08-05T02:25:49;96617.94;;;18.93;100.00
46614;BME280;32338;50.430;6.806;2022-08-05T02:28:21;96630.50;;;18.93;100.00
46614;BME280;32338;50.430;6.806;2022-08-05T02:30:54;96635.50;;;18.89;100.00
46614;BME280;32338;50.430;6.806;2022-08-05T02:33:25;96647.53;;;18.87;100.00
46614;BME280;32338;50.430;6.806;2022-08-05T02:35:54;96652.47;;;18.78;100.00
46614;BME280;32338;50.430;6.806;2022-08-05T02:38:24;96646.06;;;18.62;100.00
46614;BME280;32338;50.430;6.806;2022-08-05T02:40:54;96651.88;;;18.59;100.00
46614;BME280;32338;50.430;6.806;2022-08-05T02:43:23;96659.75;;;18.66;100.00
46614;BME280;32338;50.430;6.806;2022-08-05T02:45:53;96653.59;;;18.65;100.00
46614;BME280;32338;50.430;6.806;2022-08-05T02:48:21;96646.47;;;18.71;100.00
46614;BME280;32338;50.430;6.806;2022-08-05T02:50:49;96649.19;;;18.59;100.00
46614;BME280;32338;50.430;6.806;2022-08-05T02:53:20;96657.56;;;18.62;100.00
46614;BME280;32338;50.430;6.806;2022-08-05T02:55:51;96657.31;;;18.81;100.00
46614;BME280;32338;50.430;6.806;2022-08-05T02:58:19;96648.56;;;18.86;100.00
46614;BME280;32338;50.430;6.806;2022-08-05T03:00:54;96653.66;;;18.87;100.00
46614;BME280;32338;50.430;6.806;2022-08-05T03:03:39;96658.34;;;18.92;100.00
46614;BME280;32338;50.430;6.806;2022-08-05T03:06:11;96662.13;;;18.96;100.00
46614;BME280;32338;50.430;6.806;2022-08-05T03:08:45;96659.53;;;18.84;100.00
46614;BME280;32338;50.430;6.806;2022-08-05T03:11:18;96654.31;;;18.77;100.00
46614;BME280;32338;50.430;6.806;2022-08-05T03:13:45;96648.81;;;18.67;100.00
46614;BME280;32338;50.430;6.806;2022-08-05T03:16:12;96652.69;;;18.76;100.00
46614;BME280;32338;50.430;6.806;2022-08-05T03:18:41;96642.31;;;18.80;100.00
46614;BME280;32338;50.430;6.806;2022-08-05T03:21:08;96644.59;;;18.88;100.00
46614;BME280;32338;50.430;6.806;2022-08-05T03:23:36;96643.97;;;18.98;100.00
46614;BME280;32338;50.430;6.806;2022-08-05T03:26:04;96638.09;;;19.01;100.00
46614;BME280;32338;50.430;6.806;2022-08-05T03:28:31;96634.31;;;18.97;100.00
46614;BME280;32338;50.430;6.806;2022-08-05T03:30:59;96657.91;;;19.00;100.00
46614;BME280;32338;50.430;6.806;2022-08-05T03:33:26;96669.66;;;18.99;100.00
46614;BME280;32338;50.430;6.806;2022-08-05T03:35:56;96664.22;;;18.94;100.00
46614;BME280;32338;50.430;6.806;2022-08-05T03:38:24;96660.97;;;18.75;100.00
46614;BME280;32338;50.430;6.806;2022-08-05T03:40:51;96653.03;;;18.63;100.00
46614;BME280;32338;50.430;6.806;2022-08-05T03:43:18;96648.41;;;18.58;100.00
46614;BME280;32338;50.430;6.806;2022-08-05T03:45:50;96640.03;;;18.55;100.00
46614;BME280;32338;50.430;6.806;2022-08-05T03:48:18;96646.84;;;18.45;100.00
46614;BME280;32338;50.430;6.806;2022-08-05T03:50:50;96630.41;;;18.37;100.00
46614;BME280;32338;50.430;6.806;2022-08-05T03:53:23;96616.50;;;18.23;100.00
46614;BME280;32338;50.430;6.806;2022-08-05T03:55:59;96593.81;;;18.08;100.00
46614;BME280;32338;50.430;6.806;2022-08-05T03:58:30;96578.06;;;17.95;100.00
46614;BME280;32338;50.430;6.806;2022-08-05T04:01:00;96550.78;;;17.81;100.00
46614;BME280;32338;50.430;6.806;2022-08-05T04:03:28;96489.97;;;17.71;100.00
46614;BME280;32338;50.430;6.806;2022-08-05T04:06:01;96452.66;;;17.76;100.00
46614;BME280;32338;50.430;6.806;2022-08-05T04:08:31;96449.34;;;17.69;100.00
46614;BME280;32338;50.430;6.806;2022-08-05T04:10:59;96448.78;;;17.67;100.00
46614;BME280;32338;50.430;6.806;2022-08-05T04:13:27;96465.72;;;17.73;100.00
46614;BME280;32338;50.430;6.806;2022-08-05T04:15:54;96453.06;;;17.68;100.00
46614;BME280;32338;50.430;6.806;2022-08-05T04:18:22;96455.44;;;17.81;100.00
46614;BME280;32338;50.430;6.806;2022-08-05T04:20:52;96478.59;;;17.93;100.00
46614;BME280;32338;50.430;6.806;2022-08-05T04:23:20;96454.31;;;17.94;100.00
46614;BME280;32338;50.430;6.806;2022-08-05T04:25:49;96461.91;;;18.03;100.00
46614;BME280;32338;50.430;6.806;2022-08-05T04:28:16;96461.28;;;18.12;100.00
46614;BME280;32338;50.430;6.806;2022-08-05T04:30:43;96458.19;;;18.21;100.00
46614;BME280;32338;50.430;6.806;2022-08-05T04:33:10;96455.91;;;18.29;100.00
46614;BME280;32338;50.430;6.806;2022-08-05T04:35:37;96445.38;;;18.23;100.00
46614;BME280;32338;50.430;6.806;2022-08-05T04:38:04;96446.41;;;18.39;100.00
46614;BME280;32338;50.430;6.806;2022-08-05T04:40:32;96429.31;;;18.40;100.00
46614;BME280;32338;50.430;6.806;2022-08-05T04:43:00;96434.84;;;18.33;100.00
46614;BME280;32338;50.430;6.806;2022-08-05T04:45:27;96446.84;;;18.30;100.00
46614;BME280;32338;50.430;6.806;2022-08-05T04:47:54;96455.44;;;18.15;100.00
46614;BME280;32338;50.430;6.806;2022-08-05T04:50:28;96462.09;;;18.13;100.00
46614;BME280;32338;50.430;6.806;2022-08-05T04:52:54;96449.28;;;18.15;100.00
46614;BME280;32338;50.430;6.806;2022-08-05T04:55:21;96464.19;;;18.28;100.00
46614;BME280;32338;50.430;6.806;2022-08-05T04:57:47;96463.13;;;18.29;100.00
46614;BME280;32338;50.430;6.806;2022-08-05T05:00:16;96481.28;;;18.27;100.00
46614;BME280;32338;50.430;6.806;2022-08-05T05:02:43;96487.94;;;18.24;100.00
46614;BME280;32338;50.430;6.806;2022-08-05T05:05:09;96489.78;;;18.24;100.00
46614;BME280;32338;50.430;6.806;2022-08-05T05:07:36;96497.25;;;18.22;100.00
46614;BME280;32338;50.430;6.806;2022-08-05T05:10:03;96502.03;;;18.20;100.00
46614;BME280;32338;50.430;6.806;2022-08-05T05:12:30;96512.97;;;18.18;100.00
46614;BME280;32338;50.430;6.806;2022-08-05T05:14:57;96521.13;;;18.11;100.00
46614;BME280;32338;50.430;6.806;2022-08-05T05:17:25;96522.75;;;18.12;100.00
46614;BME280;32338;50.430;6.806;2022-08-05T05:19:52;96525.59;;;18.06;100.00
46614;BME280;32338;50.430;6.806;2022-08-05T05:22:20;96530.44;;;18.09;100.00
46614;BME280;32338;50.430;6.806;2022-08-05T05:24:47;96535.97;;;18.02;100.00
46614;BME280;32338;50.430;6.806;2022-08-05T05:27:13;96536.34;;;17.94;100.00
46614;BME280;32338;50.430;6.806;2022-08-05T05:29:40;96528.09;;;17.95;100.00
46614;BME280;32338;50.430;6.806;2022-08-05T05:32:06;96537.59;;;18.03;100.00
46614;BME280;32338;50.430;6.806;2022-08-05T05:34:34;96549.75;;;18.11;100.00
46614;BME280;32338;50.430;6.806;2022-08-05T05:37:01;96548.53;;;18.19;100.00
46614;BME280;32338;50.430;6.806;2022-08-05T05:39:28;96550.88;;;18.32;100.00
46614;BME280;32338;50.430;6.806;2022-08-05T05:41:54;96560.09;;;18.41;100.00
46614;BME280;32338;50.430;6.806;2022-08-05T05:44:21;96558.00;;;18.43;100.00
46614;BME280;32338;50.430;6.806;2022-08-05T05:46:47;96561.81;;;18.47;100.00
46614;BME280;32338;50.430;6.806;2022-08-05T05:49:14;96557.69;;;18.57;100.00
46614;BME280;32338;50.430;6.806;2022-08-05T05:51:42;96560.97;;;18.64;100.00
46614;BME280;32338;50.430;6.806;2022-08-05T05:54:09;96561.69;;;18.76;100.00
46614;BME280;32338;50.430;6.806;2022-08-05T05:56:35;96548.00;;;18.73;100.00
46614;BME280;32338;50.430;6.806;2022-08-05T05:59:03;96542.97;;;18.76;100.00
46614;BME280;32338;50.430;6.806;2022-08-05T06:01:30;96547.84;;;18.79;100.00
46614;BME280;32338;50.430;6.806;2022-08-05T06:03:57;96556.03;;;18.73;100.00
46614;BME280;32338;50.430;6.806;2022-08-05T06:06:23;96569.06;;;18.86;100.00
46614;BME280;32338;50.430;6.806;2022-08-05T06:08:51;96564.28;;;18.88;100.00
46614;BME280;32338;50.430;6.806;2022-08-05T06:11:18;96568.94;;;18.93;100.00
46614;BME280;32338;50.430;6.806;2022-08-05T06:13:44;96570.69;;;19.04;100.00
46614;BME280;32338;50.430;6.806;2022-08-05T06:16:11;96576.25;;;19.20;100.00
46614;BME280;32338;50.430;6.806;2022-08-05T06:18:38;96589.63;;;19.20;100.00
46614;BME280;32338;50.430;6.806;2022-08-05T06:21:04;96581.53;;;19.15;100.00
46614;BME280;32338;50.430;6.806;2022-08-05T06:23:31;96576.72;;;19.17;100.00
46614;BME280;32338;50.430;6.806;2022-08-05T06:25:59;96563.84;;;19.14;100.00
46614;BME280;32338;50.430;6.806;2022-08-05T06:28:26;96574.75;;;19.29;100.00
46614;BME280;32338;50.430;6.806;2022-08-05T06:30:52;96590.66;;;19.36;100.00
46614;BME280;32338;50.430;6.806;2022-08-05T06:33:19;96600.97;;;19.49;100.00
46614;BME280;32338;50.430;6.806;2022-08-05T06:35:46;96595.19;;;19.35;100.00
46614;BME280;32338;50.430;6.806;2022-08-05T06:38:12;96587.66;;;19.32;100.00
46614;BME280;32338;50.430;6.806;2022-08-05T06:40:41;96597.06;;;19.35;100.00
46614;BME280;32338;50.430;6.806;2022-08-05T06:43:09;96594.97;;;19.37;100.00
46614;BME280;32338;50.430;6.806;2022-08-05T06:45:35;96599.09;;;19.27;100.00
46614;BME280;32338;50.430;6.806;2022-08-05T06:48:03;96597.66;;;19.20;100.00
46614;BME280;32338;50.430;6.806;2022-08-05T06:50:29;96597.78;;;19.30;100.00
46614;BME280;32338;50.430;6.806;2022-08-05T06:52:56;96589.28;;;19.33;100.00
46614;BME280;32338;50.430;6.806;2022-08-05T06:55:23;96586.72;;;19.43;100.00
46614;BME280;32338;50.430;6.806;2022-08-05T06:57:49;96595.38;;;19.51;100.00
46614;BME280;32338;50.430;6.806;2022-08-05T07:00:18;96600.50;;;19.52;100.00
46614;BME280;32338;50.430;6.806;2022-08-05T07:02:46;96600.50;;;19.52;100.00
46614;BME280;32338;50.430;6.806;2022-08-05T07:05:13;96615.81;;;19.57;100.00
46614;BME280;32338;50.430;6.806;2022-08-05T07:07:39;96618.28;;;19.41;100.00
46614;BME280;32338;50.430;6.806;2022-08-05T07:10:09;96605.69;;;19.64;100.00
46614;BME280;32338;50.430;6.806;2022-08-05T07:12:35;96601.28;;;19.53;100.00
46614;BME280;32338;50.430;6.806;2022-08-05T07:15:20;96606.69;;;19.58;100.00
46614;BME280;32338;50.430;6.806;2022-08-05T07:18:04;96612.25;;;19.51;100.00
46614;BME280;32338;50.430;6.806;2022-08-05T07:20:31;96611.00;;;19.59;100.00
46614;BME280;32338;50.430;6.806;2022-08-05T07:22:59;96616.25;;;19.49;100.00
46614;BME280;32338;50.430;6.806;2022-08-05T07:25:25;96626.47;;;19.52;100.00
46614;BME280;32338;50.430;6.806;2022-08-05T07:27:53;96628.66;;;19.55;100.00
46614;BME280;32338;50.430;6.806;2022-08-05T07:30:21;96635.38;;;19.57;100.00
46614;BME280;32338;50.430;6.806;2022-08-05T07:32:48;96643.34;;;19.52;100.00
46614;BME280;32338;50.430;6.806;2022-08-05T07:35:15;96646.78;;;19.48;100.00
46614;BME280;32338;50.430;6.806;2022-08-05T07:37:41;96659.56;;;19.63;100.00
46614;BME280;32338;50.430;6.806;2022-08-05T07:40:09;96665.09;;;19.56;100.00
46614;BME280;32338;50.430;6.806;2022-08-05T07:42:36;96674.88;;;19.45;100.00
46614;BME280;32338;50.430;6.806;2022-08-05T07:45:03;96680.56;;;19.32;100.00
46614;BME280;32338;50.430;6.806;2022-08-05T07:47:31;96690.34;;;19.21;100.00
46614;BME280;32338;50.430;6.806;2022-08-05T07:49:58;96681.41;;;19.15;100.00
46614;BME280;32338;50.430;6.806;2022-08-05T07:52:25;96688.66;;;19.15;100.00
46614;BME280;32338;50.430;6.806;2022-08-05T07:54:51;96689.69;;;19.14;100.00
46614;BME280;32338;50.430;6.806;2022-08-05T07:57:18;96701.00;;;19.16;100.00
46614;BME280;32338;50.430;6.806;2022-08-05T07:59:45;96697.63;;;19.25;100.00
46614;BME280;32338;50.430;6.806;2022-08-05T08:02:11;96701.53;;;19.18;100.00
46614;BME280;32338;50.430;6.806;2022-08-05T08:04:39;96711.19;;;19.19;100.00
46614;BME280;32338;50.430;6.806;2022-08-05T08:07:06;96706.81;;;19.12;100.00
46614;BME280;32338;50.430;6.806;2022-08-05T08:09:36;96710.41;;;19.01;100.00
46614;BME280;32338;50.430;6.806;2022-08-05T08:12:03;96704.00;;;19.02;100.00
46614;BME280;32338;50.430;6.806;2022-08-05T08:14:30;96695.72;;;19.04;100.00
46614;BME280;32338;50.430;6.806;2022-08-05T08:16:56;96703.75;;;19.21;100.00
46614;BME280;32338;50.430;6.806;2022-08-05T08:19:23;96696.34;;;19.28;100.00
46614;BME280;32338;50.430;6.806;2022-08-05T08:21:51;96691.94;;;19.39;100.00
46614;BME280;32338;50.430;6.806;2022-08-05T08:24:18;96689.28;;;19.61;100.00
46614;BME280;32338;50.430;6.806;2022-08-05T08:26:44;96673.78;;;19.85;100.00
46614;BME280;32338;50.430;6.806;2022-08-05T08:29:11;96668.94;;;20.04;100.00
46614;BME280;32338;50.430;6.806;2022-08-05T08:31:38;96659.84;;;20.11;100.00
46614;BME280;32338;50.430;6.806;2022-08-05T08:34:05;96655.81;;;20.35;100.00
46614;BME280;32338;50.430;6.806;2022-08-05T08:36:32;96663.91;;;20.40;100.00
46614;BME280;32338;50.430;6.806;2022-08-05T08:39:00;96670.41;;;20.45;100.00
46614;BME280;32338;50.430;6.806;2022-08-05T08:41:28;96679.31;;;20.50;100.00
46614;BME280;32338;50.430;6.806;2022-08-05T08:43:57;96682.00;;;20.50;100.00
46614;BME280;32338;50.430;6.806;2022-08-05T08:46:26;96679.88;;;20.52;100.00
46614;BME280;32338;50.430;6.806;2022-08-05T08:48:55;96695.94;;;20.47;100.00
46614;BME280;32338;50.430;6.806;2022-08-05T08:51:23;96693.19;;;20.42;100.00
46614;BME280;32338;50.430;6.806;2022-08-05T08:53:50;96704.47;;;20.44;100.00
46614;BME280;32338;50.430;6.806;2022-08-05T08:56:19;96714.75;;;20.52;100.00
46614;BME280;32338;50.430;6.806;2022-08-05T08:58:46;96705.75;;;20.64;100.00
46614;BME280;32338;50.430;6.806;2022-08-05T09:01:13;96707.50;;;20.53;100.00
46614;BME280;32338;50.430;6.806;2022-08-05T09:03:40;96717.84;;;20.39;100.00
46614;BME280;32338;50.430;6.806;2022-08-05T09:06:07;96714.50;;;20.54;100.00
46614;BME280;32338;50.430;6.806;2022-08-05T09:08:34;96711.41;;;20.67;100.00
46614;BME280;32338;50.430;6.806;2022-08-05T09:11:01;96719.56;;;20.50;100.00
46614;BME280;32338;50.430;6.806;2022-08-05T09:13:35;96717.88;;;20.44;100.00
46614;BME280;32338;50.430;6.806;2022-08-05T09:16:16;96714.97;;;20.73;100.00
46614;BME280;32338;50.430;6.806;2022-08-05T09:18:48;96721.03;;;20.63;100.00
46614;BME280;32338;50.430;6.806;2022-08-05T09:21:17;96721.69;;;20.48;100.00
46614;BME280;32338;50.430;6.806;2022-08-05T09:24:01;96717.75;;;20.56;100.00
46614;BME280;32338;50.430;6.806;2022-08-05T09:26:32;96712.03;;;20.75;100.00
46614;BME280;32338;50.430;6.806;2022-08-05T09:29:04;96713.09;;;20.73;100.00
46614;BME280;32338;50.430;6.806;2022-08-05T09:31:34;96724.44;;;20.81;100.00
46614;BME280;32338;50.430;6.806;2022-08-05T09:34:09;96715.28;;;20.77;100.00
46614;BME280;32338;50.430;6.806;2022-08-05T09:36:42;96721.84;;;20.91;100.00
46614;BME280;32338;50.430;6.806;2022-08-05T09:39:13;96726.28;;;21.08;100.00
46614;BME280;32338;50.430;6.806;2022-08-05T09:41:56;96732.00;;;21.21;100.00
46614;BME280;32338;50.430;6.806;2022-08-05T09:44:40;96725.38;;;21.34;100.00
46614;BME280;32338;50.430;6.806;2022-08-05T09:47:12;96730.81;;;21.40;100.00
46614;BME280;32338;50.430;6.806;2022-08-05T09:49:41;96738.06;;;21.44;100.00
46614;BME280;32338;50.430;6.806;2022-08-05T09:52:31;96740.78;;;21.49;100.00
46614;BME280;32338;50.430;6.806;2022-08-05T09:55:09;96746.69;;;21.46;100.00
46614;BME280;32338;50.430;6.806;2022-08-05T09:57:40;96759.63;;;21.17;100.00
46614;BME280;32338;50.430;6.806;2022-08-05T10:00:18;96774.06;;;20.78;100.00
46614;BME280;32338;50.430;6.806;2022-08-05T10:02:51;96783.53;;;20.36;100.00
46614;BME280;32338;50.430;6.806;2022-08-05T10:05:27;96778.72;;;19.94;100.00
46614;BME280;32338;50.430;6.806;2022-08-05T10:07:59;96794.34;;;19.80;100.00
46614;BME280;32338;50.430;6.806;2022-08-05T10:10:36;96799.97;;;19.61;100.00
46614;BME280;32338;50.430;6.806;2022-08-05T10:13:28;96808.69;;;19.35;100.00
46614;BME280;32338;50.430;6.806;2022-08-05T10:16:03;96813.78;;;19.19;100.00
46614;BME280;32338;50.430;6.806;2022-08-05T10:18:36;96821.78;;;19.02;100.00
46614;BME280;32338;50.430;6.806;2022-08-05T10:21:09;96819.50;;;18.94;100.00
46614;BME280;32338;50.430;6.806;2022-08-05T10:23:39;96814.19;;;18.82;100.00
46614;BME280;32338;50.430;6.806;2022-08-05T10:26:11;96811.84;;;18.57;100.00
46614;BME280;32338;50.430;6.806;2022-08-05T10:28:40;96809.97;;;18.57;100.00
46614;BME280;32338;50.430;6.806;2022-08-05T10:31:19;96817.84;;;18.64;100.00
46614;BME280;32338;50.430;6.806;2022-08-05T10:33:51;96817.56;;;18.77;100.00
46614;BME280;32338;50.430;6.806;2022-08-05T10:36:24;96816.63;;;18.84;100.00
46614;BME280;32338;50.430;6.806;2022-08-05T10:39:01;96824.06;;;18.82;100.00
46614;BME280;32338;50.430;6.806;2022-08-05T10:41:36;96829.66;;;18.80;100.00
46614;BME280;32338;50.430;6.806;2022-08-05T10:44:11;96832.75;;;18.89;100.00
46614;BME280;32338;50.430;6.806;2022-08-05T10:46:49;96844.41;;;18.83;100.00
46614;BME280;32338;50.430;6.806;2022-08-05T10:49:20;96852.13;;;18.79;100.00
46614;BME280;32338;50.430;6.806;2022-08-05T10:51:51;96854.47;;;18.75;100.00
46614;BME280;32338;50.430;6.806;2022-08-05T10:54:23;96858.81;;;18.64;100.00
46614;BME280;32338;50.430;6.806;2022-08-05T10:56:53;96861.00;;;18.68;100.00
46614;BME280;32338;50.430;6.806;2022-08-05T10:59:29;96873.13;;;18.58;100.00
46614;BME280;32338;50.430;6.806;2022-08-05T11:02:09;96875.47;;;18.55;100.00
46614;BME280;32338;50.430;6.806;2022-08-05T11:04:44;96891.41;;;18.50;100.00
46614;BME280;32338;50.430;6.806;2022-08-05T11:07:23;96898.13;;;18.64;100.00
46614;BME280;32338;50.430;6.806;2022-08-05T11:09:52;96908.72;;;18.59;100.00
46614;BME280;32338;50.430;6.806;2022-08-05T11:12:45;96917.03;;;18.45;100.00
46614;BME280;32338;50.430;6.806;2022-08-05T11:15:19;96921.44;;;18.40;100.00
46614;BME280;32338;50.430;6.806;2022-08-05T11:18:21;96923.41;;;18.33;100.00
46614;BME280;32338;50.430;6.806;2022-08-05T11:20:49;96927.97;;;18.32;100.00
46614;BME280;32338;50.430;6.806;2022-08-05T11:23:33;96937.75;;;18.14;100.00
46614;BME280;32338;50.430;6.806;2022-08-05T11:26:21;96945.88;;;18.08;100.00
46614;BME280;32338;50.430;6.806;2022-08-05T11:29:03;96955.38;;;18.04;100.00
46614;BME280;32338;50.430;6.806;2022-08-05T11:31:34;96949.94;;;17.98;100.00
46614;BME280;32338;50.430;6.806;2022-08-05T11:34:34;96946.63;;;17.85;100.00
46614;BME280;32338;50.430;6.806;2022-08-05T11:37:04;96961.94;;;17.77;100.00
46614;BME280;32338;50.430;6.806;2022-08-05T11:39:50;96961.44;;;17.57;100.00
46614;BME280;32338;50.430;6.806;2022-08-05T11:42:25;96958.50;;;17.46;100.00
46614;BME280;32338;50.430;6.806;2022-08-05T11:45:00;96956.16;;;17.38;100.00
46614;BME280;32338;50.430;6.806;2022-08-05T11:47:32;96960.72;;;17.49;100.00
46614;BME280;32338;50.430;6.806;2022-08-05T11:50:04;96961.25;;;17.28;100.00
46614;BME280;32338;50.430;6.806;2022-08-05T11:52:34;96966.38;;;17.11;100.00
46614;BME280;32338;50.430;6.806;2022-08-05T11:55:05;96967.88;;;17.07;100.00
46614;BME280;32338;50.430;6.806;2022-08-05T11:57:32;96965.84;;;16.83;100.00
46614;BME280;32338;50.430;6.806;2022-08-05T12:00:05;96971.88;;;16.97;100.00
46614;BME280;32338;50.430;6.806;2022-08-05T12:02:53;96966.75;;;17.14;100.00
46614;BME280;32338;50.430;6.806;2022-08-05T12:05:28;96980.50;;;17.30;100.00
46614;BME280;32338;50.430;6.806;2022-08-05T12:07:56;96983.84;;;17.56;100.00
46614;BME280;32338;50.430;6.806;2022-08-05T12:10:28;96979.16;;;17.81;100.00
46614;BME280;32338;50.430;6.806;2022-08-05T12:13:02;96984.28;;;17.83;100.00
46614;BME280;32338;50.430;6.806;2022-08-05T12:15:31;96979.75;;;17.83;100.00
46614;BME280;32338;50.430;6.806;2022-08-05T12:18:00;96989.88;;;17.93;100.00
46614;BME280;32338;50.430;6.806;2022-08-05T12:20:29;96996.19;;;17.99;100.00
46614;BME280;32338;50.430;6.806;2022-08-05T12:23:09;96995.28;;;18.29;100.00
46614;BME280;32338;50.430;6.806;2022-08-05T12:25:48;96999.34;;;18.08;100.00
46614;BME280;32338;50.430;6.806;2022-08-05T12:28:29;97000.69;;;17.87;100.00
46614;BME280;32338;50.430;6.806;2022-08-05T12:30:56;96997.16;;;17.74;100.00
46614;BME280;32338;50.430;6.806;2022-08-05T12:33:23;97011.56;;;17.85;100.00
46614;BME280;32338;50.430;6.806;2022-08-05T12:35:57;97012.28;;;17.92;100.00
46614;BME280;32338;50.430;6.806;2022-08-05T12:38:29;97016.91;;;18.15;100.00
46614;BME280;32338;50.430;6.806;2022-08-05T12:40:56;97020.81;;;18.01;100.00
46614;BME280;32338;50.430;6.806;2022-08-05T12:43:24;97023.84;;;18.05;100.00
46614;BME280;32338;50.430;6.806;2022-08-05T12:45:56;97028.56;;;17.91;100.00
46614;BME280;32338;50.430;6.806;2022-08-05T12:48:39;97023.72;;;17.99;100.00
46614;BME280;32338;50.430;6.806;2022-08-05T12:51:28;97030.41;;;18.33;100.00
46614;BME280;32338;50.430;6.806;2022-08-05T12:54:01;97031.94;;;18.52;100.00
46614;BME280;32338;50.430;6.806;2022-08-05T12:56:41;97027.25;;;18.71;100.00
46614;BME280;32338;50.430;6.806;2022-08-05T12:59:09;97029.00;;;18.77;99.76
46614;BME280;32338;50.430;6.806;2022-08-05T13:01:39;97027.84;;;18.73;100.00
46614;BME280;32338;50.430;6.806;2022-08-05T13:04:06;97028.91;;;18.84;100.00
46614;BME280;32338;50.430;6.806;2022-08-05T13:06:40;97026.31;;;19.13;99.76